createdAt,value
2019-01-19T00:01:21.307Z,99.90
2019-01-19T00:04:22.531Z,99.90
2019-01-19T00:07:32.995Z,99.90
2019-01-19T00:10:39.086Z,99.90
2019-01-19T00:13:30.169Z,99.90
2019-01-19T00:16:04.589Z,99.90
2019-01-19T00:19:11.913Z,99.90
2019-01-19T00:21:55.486Z,99.90
2019-01-19T00:24:55.068Z,99.90
2019-01-19T00:27:44.525Z,99.90
2019-01-19T00:31:05.347Z,99.90
2019-01-19T00:34:11.032Z,99.90
2019-01-19T00:37:11.324Z,99.90
2019-01-19T00:40:19.746Z,99.90
2019-01-19T00:43:03.293Z,99.90
2019-01-19T00:46:13.087Z,99.90
2019-01-19T00:48:57.125Z,99.90
2019-01-19T00:52:00.171Z,99.90
2019-01-19T00:54:44.139Z,99.90
2019-01-19T00:57:29.144Z,99.90
2019-01-19T01:00:01.946Z,99.90
2019-01-19T01:02:49.140Z,99.90
2019-01-19T01:05:59.391Z,99.90
2019-01-19T01:09:04.943Z,99.90
2019-01-19T01:12:04.860Z,99.90
2019-01-19T01:15:07.021Z,99.90
2019-01-19T01:17:58.035Z,99.90
2019-01-19T01:20:47.815Z,99.90
2019-01-19T01:24:09.727Z,99.90
2019-01-19T01:27:01.774Z,99.90
2019-01-19T01:30:07.708Z,99.90
2019-01-19T01:32:53.603Z,99.90
2019-01-19T01:35:53.880Z,99.90
2019-01-19T01:38:55.129Z,99.90
2019-01-19T01:41:57.511Z,99.90
2019-01-19T01:45:03.464Z,99.90
2019-01-19T01:48:08.496Z,99.90
2019-01-19T01:50:54.601Z,99.90
2019-01-19T01:53:58.256Z,99.90
2019-01-19T01:56:27.243Z,99.90
2019-01-19T01:59:23.680Z,99.90
2019-01-19T02:02:06.272Z,99.90
2019-01-19T02:05:06.704Z,99.90
2019-01-19T02:08:29.311Z,99.90
2019-01-19T02:11:11.355Z,99.90
2019-01-19T02:14:05.306Z,99.90
2019-01-19T02:17:05.889Z,99.90
2019-01-19T02:20:25.212Z,99.90
2019-01-19T02:23:34.730Z,99.90
2019-01-19T02:26:50.479Z,99.90
2019-01-19T02:30:15.979Z,99.90
2019-01-19T02:33:20.373Z,99.90
2019-01-19T02:36:05.639Z,99.90
2019-01-19T02:39:06.771Z,99.90
2019-01-19T02:42:14.572Z,99.90
2019-01-19T02:45:30.857Z,99.90
2019-01-19T02:48:29.291Z,99.90
2019-01-19T02:51:07.609Z,99.90
2019-01-19T02:54:26.924Z,99.90
2019-01-19T02:57:42.775Z,99.90
2019-01-19T03:00:40.568Z,99.90
2019-01-19T03:03:56.724Z,99.90
2019-01-19T03:06:37.368Z,99.90
2019-01-19T03:09:23.157Z,99.90
2019-01-19T03:12:51.478Z,99.90
2019-01-19T03:15:48.826Z,99.90
2019-01-19T03:18:45.724Z,99.90
2019-01-19T03:22:16.808Z,99.90
2019-01-19T03:25:09.282Z,99.90
2019-01-19T03:27:59.912Z,99.90
2019-01-19T03:31:10.369Z,99.90
2019-01-19T03:34:18.638Z,99.90
2019-01-19T03:37:33.313Z,99.90
2019-01-19T03:40:37.726Z,99.90
2019-01-19T03:43:41.852Z,99.90
2019-01-19T03:47:03.778Z,99.90
2019-01-19T03:49:48.991Z,99.90
2019-01-19T03:53:00.886Z,99.90
2019-01-19T03:56:16.863Z,99.90
2019-01-19T03:58:59.689Z,99.90
2019-01-19T04:01:46.105Z,99.90
2019-01-19T04:04:40.479Z,99.90
2019-01-19T04:07:35.311Z,99.90
2019-01-19T04:10:42.814Z,99.90
2019-01-19T04:13:50.060Z,99.90
2019-01-19T04:17:02.168Z,99.90
2019-01-19T04:19:51.545Z,99.90
2019-01-19T04:22:34.469Z,99.90
2019-01-19T04:25:34.133Z,99.90
2019-01-19T04:28:04.535Z,99.90
2019-01-19T04:30:33.443Z,99.90
2019-01-19T04:33:02.379Z,99.90
2019-01-19T04:35:31.470Z,99.90
2019-01-19T04:38:00.436Z,99.90
2019-01-19T04:40:29.420Z,99.90
2019-01-19T04:42:58.635Z,99.90
2019-01-19T04:45:27.609Z,99.90
2019-01-19T04:47:56.675Z,99.90
2019-01-19T04:50:25.680Z,99.90
2019-01-19T04:52:54.659Z,99.90
2019-01-19T04:55:23.565Z,99.90
2019-01-19T04:57:52.829Z,99.90
2019-01-19T05:00:21.869Z,99.90
2019-01-19T05:02:51.336Z,99.90
2019-01-19T05:05:20.260Z,99.90
2019-01-19T05:07:49.243Z,99.90
2019-01-19T05:10:18.228Z,99.90
2019-01-19T05:12:47.212Z,99.90
2019-01-19T05:15:18.668Z,99.90
2019-01-19T05:17:48.177Z,99.90
2019-01-19T05:20:17.834Z,99.90
2019-01-19T05:22:46.893Z,99.90
2019-01-19T05:25:15.929Z,99.90
2019-01-19T05:27:44.886Z,99.90
2019-01-19T05:30:16.227Z,99.90
2019-01-19T05:32:45.369Z,99.90
2019-01-19T05:35:14.799Z,99.90
2019-01-19T05:37:43.763Z,99.90
2019-01-19T05:40:13.356Z,99.90
2019-01-19T05:42:42.803Z,99.90
2019-01-19T05:45:13.795Z,99.90
2019-01-19T05:47:43.206Z,99.90
2019-01-19T05:50:17.867Z,99.90
2019-01-19T05:52:47.096Z,99.90
2019-01-19T05:55:16.268Z,99.90
2019-01-19T05:57:45.441Z,99.90
2019-01-19T06:00:17.074Z,99.90
2019-01-19T06:02:46.139Z,99.90
2019-01-19T06:05:15.513Z,99.90
2019-01-19T06:07:44.794Z,99.90
2019-01-19T06:10:15.000Z,99.90
2019-01-19T06:12:44.094Z,99.90
2019-01-19T06:15:14.612Z,99.90
2019-01-19T06:17:43.748Z,99.90
2019-01-19T06:20:14.687Z,99.90
2019-01-19T06:22:43.726Z,99.90
2019-01-19T06:25:13.668Z,99.90
2019-01-19T06:27:42.664Z,99.90
2019-01-19T06:30:15.227Z,99.90
2019-01-19T06:32:44.292Z,99.90
2019-01-19T06:35:13.344Z,99.90
2019-01-19T06:37:42.461Z,99.90
2019-01-19T06:40:12.470Z,99.90
2019-01-19T06:42:41.581Z,99.90
2019-01-19T06:45:22.307Z,99.90
2019-01-19T06:47:51.264Z,99.90
2019-01-19T06:50:20.430Z,99.90
2019-01-19T06:52:49.389Z,99.90
2019-01-19T06:55:23.935Z,99.90
2019-01-19T06:57:53.003Z,99.90
2019-01-19T07:00:22.047Z,99.90
2019-01-19T07:02:51.015Z,99.90
2019-01-19T07:05:20.297Z,99.90
2019-01-19T07:07:49.274Z,99.90
2019-01-19T07:10:20.888Z,99.90
2019-01-19T07:12:49.994Z,99.90
2019-01-19T07:15:19.592Z,99.90
2019-01-19T07:17:48.857Z,99.90
2019-01-19T07:20:21.008Z,99.90
2019-01-19T07:22:49.986Z,99.90
2019-01-19T07:25:18.958Z,99.90
2019-01-19T07:27:47.964Z,99.90
2019-01-19T07:30:17.512Z,99.90
2019-01-19T07:32:47.028Z,99.90
2019-01-19T07:35:16.197Z,99.90
2019-01-19T07:37:45.710Z,99.90
2019-01-19T07:40:16.297Z,99.90
2019-01-19T07:42:45.825Z,99.90
2019-01-19T07:45:15.372Z,99.90
2019-01-19T07:47:45.345Z,99.90
2019-01-19T07:50:16.464Z,99.90
2019-01-19T07:52:45.765Z,99.90
2019-01-19T07:55:15.904Z,99.90
2019-01-19T07:57:44.931Z,99.50
2019-01-19T08:00:25.520Z,99.30
2019-01-19T08:02:55.199Z,98.70
2019-01-19T08:05:24.226Z,98.60
2019-01-19T08:07:53.177Z,98.10
2019-01-19T08:10:22.102Z,97.60
2019-01-19T08:12:51.176Z,97.30
2019-01-19T08:15:22.295Z,97.10
2019-01-19T08:17:51.441Z,96.60
2019-01-19T08:20:20.609Z,96.10
2019-01-19T08:22:49.604Z,95.90
2019-01-19T08:25:18.723Z,95.70
2019-01-19T08:27:47.776Z,95.00
2019-01-19T08:30:22.676Z,94.70
2019-01-19T08:32:51.731Z,94.40
2019-01-19T08:35:21.013Z,93.70
2019-01-19T08:37:50.177Z,93.60
2019-01-19T08:40:22.232Z,92.90
2019-01-19T08:42:58.167Z,93.00
2019-01-19T08:45:28.122Z,93.00
2019-01-19T08:47:57.210Z,93.40
2019-01-19T08:50:26.436Z,93.00
2019-01-19T08:52:56.012Z,93.00
2019-01-19T08:55:25.241Z,92.40
2019-01-19T08:57:54.501Z,92.30
2019-01-19T09:00:23.827Z,91.30
2019-01-19T09:02:52.888Z,91.50
2019-01-19T09:05:22.925Z,90.60
2019-01-19T09:07:51.947Z,89.50
2019-01-19T09:10:22.228Z,87.40
2019-01-19T09:12:51.125Z,85.50
2019-01-19T09:15:22.660Z,84.80
2019-01-19T09:17:52.236Z,85.10
2019-01-19T09:20:21.586Z,85.00
2019-01-19T09:22:53.937Z,81.90
2019-01-19T09:25:23.046Z,82.00
2019-01-19T09:27:51.997Z,84.10
2019-01-19T09:30:21.141Z,84.70
2019-01-19T09:32:50.311Z,83.60
2019-01-19T09:35:19.564Z,81.90
2019-01-19T09:37:52.457Z,79.40
2019-01-19T09:40:21.721Z,80.20
2019-01-19T09:42:51.060Z,79.60
2019-01-19T09:45:21.100Z,80.50
2019-01-19T09:47:50.144Z,81.90
2019-01-19T09:50:19.280Z,80.30
2019-01-19T09:52:49.113Z,79.70
2019-01-19T09:55:18.210Z,81.90
2019-01-19T09:57:51.111Z,82.70
2019-01-19T10:00:20.242Z,82.00
2019-01-19T10:02:49.243Z,80.40
2019-01-19T10:05:20.895Z,79.60
2019-01-19T10:07:49.932Z,80.60
2019-01-19T10:10:19.245Z,80.40
2019-01-19T10:12:48.230Z,82.10
2019-01-19T10:15:17.521Z,78.80
2019-01-19T10:17:46.588Z,79.60
2019-01-19T10:20:20.927Z,78.50
2019-01-19T10:22:49.876Z,78.90
2019-01-19T10:25:18.925Z,78.70
2019-01-19T10:27:47.923Z,78.70
2019-01-19T10:30:23.010Z,79.90
2019-01-19T10:32:52.158Z,78.60
2019-01-19T10:35:21.332Z,78.90
2019-01-19T10:37:56.160Z,79.00
2019-01-19T10:40:21.487Z,77.20
2019-01-19T10:42:51.090Z,75.00
2019-01-19T10:45:22.271Z,74.40
2019-01-19T10:47:51.305Z,73.80
2019-01-19T10:50:20.933Z,71.40
2019-01-19T10:52:49.968Z,71.10
2019-01-19T10:55:19.996Z,71.20
2019-01-19T10:57:49.059Z,71.30
2019-01-19T11:00:20.908Z,69.90
2019-01-19T11:02:50.115Z,69.00
2019-01-19T11:05:19.183Z,66.90
2019-01-19T11:07:49.265Z,65.70
2019-01-19T11:10:23.041Z,63.50
2019-01-19T11:12:53.780Z,61.20
2019-01-19T11:15:23.107Z,61.30
2019-01-19T11:17:52.620Z,60.80
2019-01-19T11:20:25.588Z,58.20
2019-01-19T11:22:55.463Z,58.60
2019-01-19T11:25:24.909Z,58.40
2019-01-19T11:27:54.014Z,57.20
2019-01-19T11:30:28.744Z,57.50
2019-01-19T11:32:57.839Z,56.40
2019-01-19T11:35:27.228Z,56.80
2019-01-19T11:37:57.815Z,55.60
2019-01-19T11:40:32.514Z,52.80
2019-01-19T11:43:01.691Z,53.60
2019-01-19T11:45:32.250Z,52.90
2019-01-19T11:48:01.945Z,54.00
2019-01-19T11:50:31.755Z,52.50
2019-01-19T11:53:01.068Z,52.90
2019-01-19T11:55:30.028Z,53.10
2019-01-19T11:58:02.040Z,52.30
2019-01-19T12:00:32.376Z,52.50
2019-01-19T12:03:01.342Z,51.60
2019-01-19T12:05:31.945Z,49.80
2019-01-19T12:08:02.217Z,49.80
2019-01-19T12:10:31.994Z,50.30
2019-01-19T12:13:01.155Z,48.40
2019-01-19T12:15:31.058Z,49.80
2019-01-19T12:18:00.113Z,49.00
2019-01-19T12:20:47.078Z,48.50
2019-01-19T12:23:16.139Z,46.00
2019-01-19T12:25:45.142Z,45.40
2019-01-19T12:28:15.037Z,45.70
2019-01-19T12:30:44.154Z,46.00
2019-01-19T12:33:13.295Z,45.70
2019-01-19T12:35:42.446Z,43.60
2019-01-19T12:38:11.517Z,44.10
2019-01-19T12:40:40.841Z,46.20
2019-01-19T12:43:15.583Z,45.70
2019-01-19T12:45:50.376Z,46.80
2019-01-19T12:48:19.583Z,46.60
2019-01-19T12:50:48.553Z,43.40
2019-01-19T12:53:18.185Z,43.70
2019-01-19T12:55:47.212Z,43.60
2019-01-19T12:58:16.981Z,43.80
2019-01-19T13:00:45.972Z,41.00
2019-01-19T13:03:15.014Z,40.50
2019-01-19T13:05:47.330Z,40.50
2019-01-19T13:08:18.959Z,41.00
2019-01-19T13:11:08.527Z,40.10
2019-01-19T13:13:45.102Z,39.50
2019-01-19T13:17:00.531Z,39.40
2019-01-19T13:19:34.758Z,39.90
2019-01-19T13:22:45.954Z,38.70
2019-01-19T13:25:59.302Z,37.80
2019-01-19T13:28:58.035Z,37.30
2019-01-19T13:32:00.555Z,39.00
2019-01-19T13:35:02.423Z,39.10
2019-01-19T13:37:58.412Z,38.80
2019-01-19T13:41:13.693Z,38.40
2019-01-19T13:44:09.800Z,37.10
2019-01-19T13:47:25.908Z,37.30
2019-01-19T13:50:21.932Z,34.20
2019-01-19T13:53:40.781Z,33.90
2019-01-19T13:57:05.970Z,35.70
2019-01-19T14:00:06.581Z,35.00
2019-01-19T14:03:02.743Z,33.70
2019-01-19T14:06:06.644Z,34.40
2019-01-19T14:09:16.878Z,34.10
2019-01-19T14:12:24.458Z,33.80
2019-01-19T14:15:36.060Z,33.90
2019-01-19T14:18:39.273Z,32.40
2019-01-19T14:21:50.483Z,32.20
2019-01-19T14:24:27.844Z,32.00
2019-01-19T14:27:36.416Z,31.20
2019-01-19T14:30:56.153Z,31.20
2019-01-19T14:33:59.917Z,30.60
2019-01-19T14:36:51.595Z,30.20
2019-01-19T14:39:51.370Z,29.80
2019-01-19T14:42:33.825Z,30.30
2019-01-19T14:45:24.145Z,30.20
2019-01-19T14:48:25.261Z,30.70
2019-01-19T14:51:40.118Z,29.80
2019-01-19T14:54:34.694Z,30.00
2019-01-19T14:57:40.734Z,30.50
2019-01-19T15:00:49.913Z,29.00
2019-01-19T15:03:57.208Z,29.40
2019-01-19T15:07:14.081Z,29.10
2019-01-19T15:10:01.103Z,29.40
2019-01-19T15:12:56.435Z,29.30
2019-01-19T15:16:18.572Z,29.90
2019-01-19T15:19:29.015Z,29.40
2019-01-19T15:22:25.071Z,29.70
2019-01-19T15:25:03.910Z,29.30
2019-01-19T15:28:16.151Z,29.00
2019-01-19T15:31:35.301Z,28.60
2019-01-19T15:34:34.245Z,29.30
2019-01-19T15:37:43.331Z,29.20
2019-01-19T15:40:36.718Z,29.40
2019-01-19T15:43:41.926Z,29.20
2019-01-19T15:46:50.184Z,28.90
2019-01-19T15:50:09.561Z,29.20
2019-01-19T15:53:25.800Z,29.70
2019-01-19T15:56:25.345Z,30.50
2019-01-19T15:59:12.194Z,31.60
2019-01-19T16:02:20.561Z,32.30
2019-01-19T16:04:58.794Z,33.50
2019-01-19T16:08:02.165Z,36.60
2019-01-19T16:11:01.812Z,46.90
2019-01-19T16:13:47.936Z,50.80
2019-01-19T16:17:06.283Z,55.80
2019-01-19T16:20:16.060Z,57.70
2019-01-19T16:22:56.828Z,62.20
2019-01-19T16:25:50.080Z,63.80
2019-01-19T16:28:54.319Z,65.70
2019-01-19T16:32:08.165Z,67.20
2019-01-19T16:35:14.134Z,70.30
2019-01-19T16:38:08.614Z,71.00
2019-01-19T16:41:07.787Z,72.00
2019-01-19T16:44:30.546Z,73.30
2019-01-19T16:47:27.661Z,71.90
2019-01-19T16:50:27.608Z,74.40
2019-01-19T16:53:04.661Z,73.60
2019-01-19T16:56:21.229Z,73.30
2019-01-19T16:59:35.347Z,74.40
2019-01-19T17:02:31.439Z,76.60
2019-01-19T17:05:21.685Z,76.60
2019-01-19T17:08:12.810Z,77.90
2019-01-19T17:11:12.951Z,78.70
2019-01-19T17:14:29.209Z,78.90
2019-01-19T17:17:12.132Z,78.90
2019-01-19T17:20:12.469Z,79.60
2019-01-19T17:23:04.840Z,79.40
2019-01-19T17:26:02.573Z,80.60
2019-01-19T17:29:21.785Z,81.20
2019-01-19T17:32:22.960Z,81.30
2019-01-19T17:35:27.135Z,82.00
2019-01-19T17:38:18.333Z,79.90
2019-01-19T17:41:08.300Z,81.00
2019-01-19T17:44:07.509Z,82.30
2019-01-19T17:47:12.940Z,83.20
2019-01-19T17:50:15.156Z,82.60
2019-01-19T17:53:19.541Z,81.90
2019-01-19T17:56:16.389Z,81.40
2019-01-19T17:59:27.482Z,81.80
2019-01-19T18:02:37.998Z,82.80
2019-01-19T18:05:52.012Z,83.90
2019-01-19T18:08:31.088Z,84.80
2019-01-19T18:11:30.778Z,82.70
2019-01-19T18:14:36.957Z,83.20
2019-01-19T18:17:50.472Z,83.30
2019-01-19T18:20:44.573Z,83.00
2019-01-19T18:23:42.512Z,82.60
2019-01-19T18:26:47.866Z,80.80
2019-01-19T18:29:44.534Z,80.20
2019-01-19T18:32:43.511Z,77.70
2019-01-19T18:35:26.516Z,79.00
2019-01-19T18:38:20.099Z,78.90
2019-01-19T18:41:33.656Z,78.20
2019-01-19T18:44:24.971Z,79.10
2019-01-19T18:47:22.104Z,80.10
2019-01-19T18:50:23.066Z,81.40
2019-01-19T18:53:39.421Z,81.40
2019-01-19T18:56:44.531Z,82.20
2019-01-19T18:59:37.513Z,83.70
2019-01-19T19:02:49.066Z,83.00
2019-01-19T19:05:42.084Z,84.60
2019-01-19T19:08:36.299Z,84.70
2019-01-19T19:11:30.703Z,84.20
2019-01-19T19:14:16.498Z,83.90
2019-01-19T19:17:07.936Z,85.50
2019-01-19T19:19:46.247Z,85.60
2019-01-19T19:22:44.053Z,85.80
2019-01-19T19:25:58.637Z,86.20
2019-01-19T19:29:02.778Z,86.70
2019-01-19T19:32:02.125Z,87.50
2019-01-19T19:34:52.916Z,88.40
2019-01-19T19:37:58.109Z,89.00
2019-01-19T19:40:54.731Z,89.00
2019-01-19T19:43:38.384Z,89.00
2019-01-19T19:46:33.787Z,90.00
2019-01-19T19:49:29.464Z,89.00
2019-01-19T19:52:02.250Z,89.90
2019-01-19T19:54:32.372Z,90.20
2019-01-19T19:57:01.412Z,90.50
2019-01-19T19:59:30.959Z,90.80
2019-01-19T20:02:00.511Z,91.00
2019-01-19T20:04:29.839Z,91.50
2019-01-19T20:06:58.867Z,91.30
2019-01-19T20:09:28.836Z,91.60
2019-01-19T20:12:08.319Z,91.50
2019-01-19T20:14:37.784Z,91.70
2019-01-19T20:17:07.224Z,91.80
2019-01-19T20:19:36.264Z,91.20
2019-01-19T20:22:05.768Z,91.20
2019-01-19T20:24:34.758Z,91.00
2019-01-19T20:27:03.822Z,91.20
2019-01-19T20:29:32.844Z,91.50
2019-01-19T20:32:01.880Z,90.90
2019-01-19T20:34:30.916Z,90.90
2019-01-19T20:36:59.936Z,90.90
2019-01-19T20:39:29.215Z,91.40
2019-01-19T20:41:58.270Z,91.60
2019-01-19T20:44:27.183Z,92.00
2019-01-19T20:46:56.764Z,91.90
2019-01-19T20:49:25.831Z,91.70
2019-01-19T20:51:54.879Z,92.00
2019-01-19T20:54:24.527Z,92.20
2019-01-19T20:56:53.599Z,92.30
2019-01-19T20:59:22.664Z,92.30
2019-01-19T21:01:51.738Z,91.80
2019-01-19T21:04:20.646Z,91.90
2019-01-19T21:06:49.639Z,91.50
2019-01-19T21:09:18.948Z,91.10
2019-01-19T21:11:47.925Z,91.60
2019-01-19T21:14:16.876Z,91.80
2019-01-19T21:16:45.884Z,91.50
2019-01-19T21:19:14.788Z,91.50
2019-01-19T21:21:43.774Z,91.10
2019-01-19T21:24:12.712Z,91.20
2019-01-19T21:26:42.549Z,91.40
2019-01-19T21:29:11.476Z,91.80
2019-01-19T21:31:40.865Z,91.60
2019-01-19T21:34:10.112Z,91.60
2019-01-19T21:36:39.082Z,91.50
2019-01-19T21:39:08.869Z,91.40
2019-01-19T21:41:38.490Z,91.70
2019-01-19T21:44:07.510Z,91.60
2019-01-19T21:46:36.438Z,91.70
2019-01-19T21:49:06.172Z,91.90
2019-01-19T21:51:35.154Z,91.90
2019-01-19T21:54:04.610Z,91.90
2019-01-19T21:56:34.128Z,91.80
2019-01-19T21:59:03.433Z,91.60
2019-01-19T22:01:32.388Z,91.30
2019-01-19T22:04:01.688Z,91.50
2019-01-19T22:06:30.736Z,91.60
2019-01-19T22:09:00.355Z,90.70
2019-01-19T22:11:29.535Z,90.60
2019-01-19T22:13:58.444Z,90.60
2019-01-19T22:16:28.305Z,90.10
2019-01-19T22:18:57.265Z,90.20
2019-01-19T22:21:26.249Z,90.40
2019-01-19T22:23:55.779Z,88.30
2019-01-19T22:26:25.058Z,85.50
2019-01-19T22:28:54.071Z,84.40
2019-01-19T22:31:23.653Z,84.00
2019-01-19T22:33:52.595Z,84.00
2019-01-19T22:36:21.595Z,83.90
2019-01-19T22:38:51.257Z,83.60
2019-01-19T22:41:20.216Z,82.90
2019-01-19T22:43:49.122Z,83.00
2019-01-19T22:46:18.133Z,82.70
2019-01-19T22:48:47.223Z,83.00
2019-01-19T22:51:16.202Z,83.70
2019-01-19T22:53:45.212Z,83.80
2019-01-19T22:56:14.204Z,83.00
2019-01-19T22:58:43.145Z,82.70
2019-01-19T23:01:50.675Z,83.20
2019-01-19T23:04:38.915Z,84.20
2019-01-19T23:07:07.835Z,83.30
2019-01-19T23:09:36.747Z,84.40
2019-01-19T23:12:05.750Z,84.40
2019-01-19T23:14:35.492Z,84.20
2019-01-19T23:17:05.027Z,83.70
2019-01-19T23:19:34.007Z,84.40
2019-01-19T23:22:03.002Z,84.70
2019-01-19T23:24:32.271Z,84.10
2019-01-19T23:27:05.633Z,84.20
2019-01-19T23:29:34.544Z,83.50
2019-01-19T23:32:04.494Z,83.10
2019-01-19T23:34:33.565Z,82.50
2019-01-19T23:37:02.647Z,83.50
2019-01-19T23:39:31.658Z,83.40
2019-01-19T23:42:00.707Z,83.40
2019-01-19T23:44:29.546Z,82.60
2019-01-19T23:46:58.401Z,82.80
2019-01-19T23:49:27.235Z,84.00
2019-01-19T23:51:56.134Z,83.70
2019-01-19T23:54:25.692Z,83.60
2019-01-19T23:56:54.855Z,83.40
2019-01-19T23:59:23.663Z,83.90
